sensor_id;sensor_type;location;lat;lon;timestamp;pressure;altitude;pressure_sealevel;temperature;humidity
10064;BME280;5071;52.360;13.134;2022-10-18T00:04:23;102027.19;;;14.55;94.13
10064;BME280;5071;52.360;13.134;2022-10-18T00:09:25;102027.22;;;14.53;94.58
10064;BME280;5071;52.360;13.134;2022-10-18T00:14:28;102031.63;;;14.56;94.37
10064;BME280;5071;52.360;13.134;2022-10-18T00:19:30;102036.06;;;14.60;93.94
10064;BME280;5071;52.360;13.134;2022-10-18T00:24:32;102040.53;;;14.61;93.99
10064;BME280;5071;52.360;13.134;2022-10-18T00:29:36;102040.53;;;14.61;94.02
10064;BME280;5071;52.360;13.134;2022-10-18T00:34:38;102046.75;;;14.63;93.94
10064;BME280;5071;52.360;13.134;2022-10-18T00:39:40;102045.88;;;14.61;93.73
10064;BME280;5071;52.360;13.134;2022-10-18T00:45:12;102046.75;;;14.62;93.94
10064;BME280;5071;52.360;13.134;2022-10-18T00:50:15;102053.91;;;14.58;94.36
10064;BME280;5071;52.360;13.134;2022-10-18T00:55:18;102059.28;;;14.53;94.61
10064;BME280;5071;52.360;13.134;2022-10-18T01:00:22;102058.41;;;14.48;94.75
10064;BME280;5071;52.360;13.134;2022-10-18T01:05:24;102057.59;;;14.42;94.64
10064;BME280;5071;52.360;13.134;2022-10-18T01:10:33;102053.19;;;14.36;94.89
10064;BME280;5071;52.360;13.134;2022-10-18T01:15:48;102054.94;;;14.35;95.42
10064;BME280;5071;52.360;13.134;2022-10-18T01:21:08;102043.38;;;14.36;95.19
10064;BME280;5071;52.360;13.134;2022-10-18T01:26:19;102039.78;;;14.37;95.38
10064;BME280;5071;52.360;13.134;2022-10-18T01:31:30;102051.31;;;14.44;95.49
10064;BME280;5071;52.360;13.134;2022-10-18T01:36:38;102043.25;;;14.49;95.83
10064;BME280;5071;52.360;13.134;2022-10-18T01:41:43;102045.91;;;14.53;95.86
10064;BME280;5071;52.360;13.134;2022-10-18T01:46:48;102047.56;;;14.71;96.51
10064;BME280;5071;52.360;13.134;2022-10-18T01:51:52;102053.06;;;15.44;97.18
10064;BME280;5071;52.360;13.134;2022-10-18T01:56:57;102050.09;;;15.69;95.93
10064;BME280;5071;52.360;13.134;2022-10-18T02:02:08;102058.09;;;15.72;95.45
10064;BME280;5071;52.360;13.134;2022-10-18T02:07:22;102062.78;;;15.56;95.05
10064;BME280;5071;52.360;13.134;2022-10-18T02:12:28;102055.75;;;15.43;95.19
10064;BME280;5071;52.360;13.134;2022-10-18T02:17:34;102063.94;;;15.32;95.43
10064;BME280;5071;52.360;13.134;2022-10-18T02:22:38;102053.25;;;15.29;95.82
10064;BME280;5071;52.360;13.134;2022-10-18T02:27:40;102060.09;;;15.56;96.56
10064;BME280;5071;52.360;13.134;2022-10-18T02:32:47;102066.03;;;15.83;96.64
10064;BME280;5071;52.360;13.134;2022-10-18T02:37:51;102068.16;;;16.21;95.77
10064;BME280;5071;52.360;13.134;2022-10-18T02:42:56;102081.56;;;16.23;95.67
10064;BME280;5071;52.360;13.134;2022-10-18T02:48:00;102074.44;;;16.22;94.95
10064;BME280;5071;52.360;13.134;2022-10-18T02:53:02;102069.84;;;16.28;95.59
10064;BME280;5071;52.360;13.134;2022-10-18T02:58:04;102069.81;;;16.31;96.26
10064;BME280;5071;52.360;13.134;2022-10-18T03:03:07;102080.41;;;16.42;95.77
10064;BME280;5071;52.360;13.134;2022-10-18T03:08:09;102096.13;;;16.62;95.15
10064;BME280;5071;52.360;13.134;2022-10-18T03:13:11;102089.97;;;16.57;94.68
10064;BME280;5071;52.360;13.134;2022-10-18T03:18:15;102080.47;;;16.35;95.63
10064;BME280;5071;52.360;13.134;2022-10-18T03:23:17;102073.41;;;16.30;96.00
10064;BME280;5071;52.360;13.134;2022-10-18T03:28:19;102082.13;;;16.43;95.40
10064;BME280;5071;52.360;13.134;2022-10-18T03:33:23;102079.59;;;16.36;95.55
10064;BME280;5071;52.360;13.134;2022-10-18T03:38:25;102096.75;;;16.24;95.61
10064;BME280;5071;52.360;13.134;2022-10-18T03:43:27;102095.03;;;16.18;96.48
10064;BME280;5071;52.360;13.134;2022-10-18T03:48:30;102088.84;;;16.11;96.69
10064;BME280;5071;52.360;13.134;2022-10-18T03:53:32;102094.22;;;16.10;97.09
10064;BME280;5071;52.360;13.134;2022-10-18T03:58:34;102093.53;;;15.96;97.38
10064;BME280;5071;52.360;13.134;2022-10-18T04:03:38;102093.59;;;15.91;97.68
10064;BME280;5071;52.360;13.134;2022-10-18T04:08:39;102106.19;;;15.84;98.12
10064;BME280;5071;52.360;13.134;2022-10-18T04:13:41;102109.78;;;15.80;98.42
10064;BME280;5071;52.360;13.134;2022-10-18T04:18:44;102098.25;;;15.77;98.55
10064;BME280;5071;52.360;13.134;2022-10-18T04:23:47;102092.00;;;15.73;98.68
10064;BME280;5071;52.360;13.134;2022-10-18T04:28:49;102088.59;;;15.62;98.97
10064;BME280;5071;52.360;13.134;2022-10-18T04:33:53;102083.34;;;15.49;99.41
10064;BME280;5071;52.360;13.134;2022-10-18T04:38:55;102093.88;;;15.63;99.42
10064;BME280;5071;52.360;13.134;2022-10-18T04:43:57;102085.91;;;15.60;99.19
10064;BME280;5071;52.360;13.134;2022-10-18T04:49:00;102094.06;;;15.48;99.78
10064;BME280;5071;52.360;13.134;2022-10-18T04:54:03;102090.53;;;15.44;99.65
10064;BME280;5071;52.360;13.134;2022-10-18T04:59:04;102079.91;;;15.38;99.38
10064;BME280;5071;52.360;13.134;2022-10-18T05:04:08;102065.75;;;15.27;100.00
10064;BME280;5071;52.360;13.134;2022-10-18T05:09:10;102069.41;;;15.20;100.00
10064;BME280;5071;52.360;13.134;2022-10-18T05:14:12;102060.56;;;15.13;100.00
10064;BME280;5071;52.360;13.134;2022-10-18T05:19:15;102073.03;;;15.12;100.00
10064;BME280;5071;52.360;13.134;2022-10-18T05:24:18;102073.94;;;15.11;100.00
10064;BME280;5071;52.360;13.134;2022-10-18T05:29:23;102071.28;;;15.08;100.00
10064;BME280;5071;52.360;13.134;2022-10-18T05:34:27;102076.66;;;15.05;100.00
10064;BME280;5071;52.360;13.134;2022-10-18T05:39:29;102090.09;;;15.01;100.00
10064;BME280;5071;52.360;13.134;2022-10-18T05:44:31;102086.53;;;14.99;100.00
10064;BME280;5071;52.360;13.134;2022-10-18T05:49:35;102081.22;;;14.97;100.00
10064;BME280;5071;52.360;13.134;2022-10-18T05:54:37;102066.09;;;14.93;100.00
10064;BME280;5071;52.360;13.134;2022-10-18T05:59:39;102068.75;;;14.94;100.00
10064;BME280;5071;52.360;13.134;2022-10-18T06:04:42;102061.69;;;14.89;100.00
10064;BME280;5071;52.360;13.134;2022-10-18T06:09:44;102051.00;;;14.86;100.00
10064;BME280;5071;52.360;13.134;2022-10-18T06:14:45;102053.66;;;14.89;100.00
10064;BME280;5071;52.360;13.134;2022-10-18T06:19:48;102056.34;;;14.86;100.00
10064;BME280;5071;52.360;13.134;2022-10-18T06:24:50;102067.91;;;14.88;100.00
10064;BME280;5071;52.360;13.134;2022-10-18T06:29:57;102065.22;;;14.91;100.00
10064;BME280;5071;52.360;13.134;2022-10-18T06:35:01;102057.22;;;14.91;100.00
10064;BME280;5071;52.360;13.134;2022-10-18T06:40:04;102065.16;;;14.99;100.00
10064;BME280;5071;52.360;13.134;2022-10-18T06:45:08;102064.22;;;15.00;100.00
10064;BME280;5071;52.360;13.134;2022-10-18T06:50:11;102074.13;;;14.93;100.00
10064;BME280;5071;52.360;13.134;2022-10-18T06:55:13;102085.69;;;14.92;100.00
10064;BME280;5071;52.360;13.134;2022-10-18T07:00:16;102089.28;;;14.91;100.00
10064;BME280;5071;52.360;13.134;2022-10-18T07:05:19;102097.25;;;14.94;100.00
10064;BME280;5071;52.360;13.134;2022-10-18T07:10:21;102097.16;;;15.11;100.00
10064;BME280;5071;52.360;13.134;2022-10-18T07:15:23;102107.72;;;15.20;100.00
10064;BME280;5071;52.360;13.134;2022-10-18T07:20:26;102122.81;;;15.29;100.00
10064;BME280;5071;52.360;13.134;2022-10-18T07:25:28;102131.63;;;15.37;100.00
10064;BME280;5071;52.360;13.134;2022-10-18T07:30:31;102136.09;;;15.36;100.00
10064;BME280;5071;52.360;13.134;2022-10-18T07:35:35;102142.22;;;15.52;100.00
10064;BME280;5071;52.360;13.134;2022-10-18T07:40:38;102135.91;;;15.58;100.00
10064;BME280;5071;52.360;13.134;2022-10-18T07:45:40;102118.03;;;15.59;100.00
10064;BME280;5071;52.360;13.134;2022-10-18T07:50:44;102125.91;;;15.71;100.00
10064;BME280;5071;52.360;13.134;2022-10-18T07:55:46;102124.16;;;15.70;100.00
10064;BME280;5071;52.360;13.134;2022-10-18T08:00:48;102134.97;;;15.61;100.00
10064;BME280;5071;52.360;13.134;2022-10-18T08:05:53;102131.41;;;15.60;100.00
10064;BME280;5071;52.360;13.134;2022-10-18T08:11:00;102127.72;;;15.69;100.00
10064;BME280;5071;52.360;13.134;2022-10-18T08:16:04;102131.31;;;15.68;100.00
10064;BME280;5071;52.360;13.134;2022-10-18T08:21:10;102133.16;;;15.63;100.00
10064;BME280;5071;52.360;13.134;2022-10-18T08:26:15;102134.88;;;15.70;100.00
10064;BME280;5071;52.360;13.134;2022-10-18T08:31:17;102133.94;;;15.71;100.00
10064;BME280;5071;52.360;13.134;2022-10-18T08:36:21;102132.28;;;15.61;100.00
10064;BME280;5071;52.360;13.134;2022-10-18T08:41:37;102140.31;;;15.61;100.00
10064;BME280;5071;52.360;13.134;2022-10-18T08:46:45;102134.94;;;15.64;100.00
10064;BME280;5071;52.360;13.134;2022-10-18T08:51:50;102133.13;;;15.66;100.00
10064;BME280;5071;52.360;13.134;2022-10-18T08:56:58;102122.44;;;15.63;100.00
10064;BME280;5071;52.360;13.134;2022-10-18T09:02:07;102124.25;;;15.64;100.00
10064;BME280;5071;52.360;13.134;2022-10-18T09:07:26;102131.41;;;15.62;100.00
10064;BME280;5071;52.360;13.134;2022-10-18T09:12:48;102122.53;;;15.57;100.00
10064;BME280;5071;52.360;13.134;2022-10-18T09:18:02;102131.50;;;15.52;100.00
10064;BME280;5071;52.360;13.134;2022-10-18T09:23:18;102135.75;;;15.75;100.00
10064;BME280;5071;52.360;13.134;2022-10-18T09:28:31;102125.03;;;15.77;100.00
10064;BME280;5071;52.360;13.134;2022-10-18T09:33:47;102122.19;;;15.87;100.00
10064;BME280;5071;52.360;13.134;2022-10-18T09:38:56;102126.66;;;15.88;100.00
10064;BME280;5071;52.360;13.134;2022-10-18T09:44:05;102133.66;;;16.00;100.00
10064;BME280;5071;52.360;13.134;2022-10-18T09:49:15;102125.91;;;15.77;100.00
10064;BME280;5071;52.360;13.134;2022-10-18T09:54:25;102135.72;;;15.77;100.00
10064;BME280;5071;52.360;13.134;2022-10-18T09:59:36;102133.00;;;15.78;100.00
10064;BME280;5071;52.360;13.134;2022-10-18T10:04:41;102135.56;;;15.90;100.00
10064;BME280;5071;52.360;13.134;2022-10-18T10:09:47;102138.31;;;15.84;100.00
10064;BME280;5071;52.360;13.134;2022-10-18T10:14:49;102135.72;;;15.77;100.00
10064;BME280;5071;52.360;13.134;2022-10-18T10:19:57;102137.56;;;15.68;100.00
10064;BME280;5071;52.360;13.134;2022-10-18T10:25:02;102130.56;;;15.57;100.00
10064;BME280;5071;52.360;13.134;2022-10-18T10:30:21;102119.75;;;15.64;100.00
10064;BME280;5071;52.360;13.134;2022-10-18T10:35:28;102115.25;;;15.69;100.00
10064;BME280;5071;52.360;13.134;2022-10-18T10:40:52;102107.19;;;15.76;100.00
10064;BME280;5071;52.360;13.134;2022-10-18T10:45:57;102092.81;;;15.81;100.00
10064;BME280;5071;52.360;13.134;2022-10-18T10:51:03;102101.63;;;15.91;100.00
10064;BME280;5071;52.360;13.134;2022-10-18T10:56:16;102098.00;;;15.95;100.00
10064;BME280;5071;52.360;13.134;2022-10-18T11:01:36;102068.63;;;15.87;100.00
10064;BME280;5071;52.360;13.134;2022-10-18T11:06:44;102088.19;;;15.96;100.00
10064;BME280;5071;52.360;13.134;2022-10-18T11:11:57;102093.47;;;16.00;100.00
10064;BME280;5071;52.360;13.134;2022-10-18T11:17:10;102098.84;;;15.97;100.00
10064;BME280;5071;52.360;13.134;2022-10-18T11:22:19;102097.00;;;16.04;100.00
10064;BME280;5071;52.360;13.134;2022-10-18T11:27:27;102087.16;;;16.06;100.00
10064;BME280;5071;52.360;13.134;2022-10-18T11:32:37;102074.25;;;16.32;99.95
10064;BME280;5071;52.360;13.134;2022-10-18T11:37:52;102075.13;;;16.35;98.75
10064;BME280;5071;52.360;13.134;2022-10-18T11:43:06;102084.06;;;16.35;98.85
10064;BME280;5071;52.360;13.134;2022-10-18T11:48:26;102086.94;;;16.21;99.92
10064;BME280;5071;52.360;13.134;2022-10-18T11:53:37;102066.31;;;16.26;99.04
10064;BME280;5071;52.360;13.134;2022-10-18T11:59:12;102071.53;;;16.36;98.62
10064;BME280;5071;52.360;13.134;2022-10-18T12:04:23;102076.03;;;16.35;97.41
10064;BME280;5071;52.360;13.134;2022-10-18T12:09:30;102069.81;;;16.31;97.67
10064;BME280;5071;52.360;13.134;2022-10-18T12:14:37;102069.84;;;16.28;97.14
10064;BME280;5071;52.360;13.134;2022-10-18T12:19:41;102078.84;;;16.24;97.36
10064;BME280;5071;52.360;13.134;2022-10-18T12:24:44;102060.78;;;16.39;98.77
10064;BME280;5071;52.360;13.134;2022-10-18T12:29:51;102069.72;;;16.39;97.23
10064;BME280;5071;52.360;13.134;2022-10-18T12:34:57;102052.81;;;16.34;98.16
10064;BME280;5071;52.360;13.134;2022-10-18T12:40:02;102058.06;;;16.40;97.95
10064;BME280;5071;52.360;13.134;2022-10-18T12:45:23;102062.41;;;16.47;97.93
10064;BME280;5071;52.360;13.134;2022-10-18T12:50:30;102058.72;;;16.56;97.38
10064;BME280;5071;52.360;13.134;2022-10-18T12:55:34;102048.31;;;16.35;98.09
10064;BME280;5071;52.360;13.134;2022-10-18T13:01:08;102039.38;;;16.36;98.33
10064;BME280;5071;52.360;13.134;2022-10-18T13:06:10;102051.81;;;16.41;97.34
10064;BME280;5071;52.360;13.134;2022-10-18T13:11:36;102041.06;;;16.43;97.94
10064;BME280;5071;52.360;13.134;2022-10-18T13:16:45;102056.19;;;16.47;98.18
10064;BME280;5071;52.360;13.134;2022-10-18T13:21:57;102052.53;;;16.51;97.52
10064;BME280;5071;52.360;13.134;2022-10-18T13:27:22;102050.63;;;16.59;97.87
10064;BME280;5071;52.360;13.134;2022-10-18T13:32:51;102053.91;;;16.77;96.53
10064;BME280;5071;52.360;13.134;2022-10-18T13:37:58;102056.19;;;17.01;94.78
10064;BME280;5071;52.360;13.134;2022-10-18T13:48:58;102051.13;;;17.76;90.13
10064;BME280;5071;52.360;13.134;2022-10-18T13:54:09;102063.72;;;17.29;91.61
10064;BME280;5071;52.360;13.134;2022-10-18T13:59:31;102056.25;;;16.97;93.80
10064;BME280;5071;52.360;13.134;2022-10-18T14:05:03;102072.41;;;16.95;93.34
10064;BME280;5071;52.360;13.134;2022-10-18T14:10:30;102071.84;;;17.69;89.45
10064;BME280;5071;52.360;13.134;2022-10-18T14:15:55;102083.38;;;17.76;87.19
10064;BME280;5071;52.360;13.134;2022-10-18T14:21:07;102072.09;;;17.59;87.83
10064;BME280;5071;52.360;13.134;2022-10-18T14:26:18;102082.16;;;17.47;88.05
10064;BME280;5071;52.360;13.134;2022-10-18T14:31:20;102080.69;;;17.31;88.42
10064;BME280;5071;52.360;13.134;2022-10-18T14:36:25;102079.63;;;16.90;88.80
10064;BME280;5071;52.360;13.134;2022-10-18T14:41:28;102084.59;;;16.57;90.44
10064;BME280;5071;52.360;13.134;2022-10-18T14:46:30;102094.78;;;16.35;89.49
10064;BME280;5071;52.360;13.134;2022-10-18T14:51:35;102098.81;;;16.02;90.57
10064;BME280;5071;52.360;13.134;2022-10-18T14:56:39;102100.00;;;15.78;91.78
10064;BME280;5071;52.360;13.134;2022-10-18T15:01:51;102093.03;;;15.61;93.06
10064;BME280;5071;52.360;13.134;2022-10-18T15:06:55;102092.94;;;15.69;93.69
10064;BME280;5071;52.360;13.134;2022-10-18T15:11:59;102085.75;;;15.72;93.19
10064;BME280;5071;52.360;13.134;2022-10-18T15:17:06;102100.06;;;15.71;93.30
10064;BME280;5071;52.360;13.134;2022-10-18T15:22:10;102094.84;;;15.59;93.49
10064;BME280;5071;52.360;13.134;2022-10-18T15:27:35;102087.88;;;15.43;93.71
10064;BME280;5071;52.360;13.134;2022-10-18T15:32:46;102104.84;;;15.40;93.73
10064;BME280;5071;52.360;13.134;2022-10-18T15:37:50;102097.09;;;15.15;94.51
10064;BME280;5071;52.360;13.134;2022-10-18T15:42:54;102094.63;;;14.92;95.34
10064;BME280;5071;52.360;13.134;2022-10-18T15:47:59;102087.63;;;14.74;96.61
10064;BME280;5071;52.360;13.134;2022-10-18T15:53:22;102092.22;;;14.52;97.65
10064;BME280;5071;52.360;13.134;2022-10-18T15:58:25;102103.88;;;14.42;98.18
10064;BME280;5071;52.360;13.134;2022-10-18T16:03:27;102101.31;;;14.27;98.85
10064;BME280;5071;52.360;13.134;2022-10-18T16:08:31;102102.28;;;14.12;98.82
10064;BME280;5071;52.360;13.134;2022-10-18T16:13:33;102098.78;;;13.96;100.00
10064;BME280;5071;52.360;13.134;2022-10-18T16:18:34;102097.09;;;13.72;100.00
10064;BME280;5071;52.360;13.134;2022-10-18T16:23:38;102100.75;;;13.46;100.00
10064;BME280;5071;52.360;13.134;2022-10-18T16:28:40;102096.31;;;13.20;100.00
10064;BME280;5071;52.360;13.134;2022-10-18T16:33:43;102104.34;;;12.82;100.00
10064;BME280;5071;52.360;13.134;2022-10-18T16:38:47;102099.88;;;12.55;100.00
10064;BME280;5071;52.360;13.134;2022-10-18T16:43:50;102117.59;;;12.34;100.00
10064;BME280;5071;52.360;13.134;2022-10-18T16:48:53;102118.41;;;12.05;100.00
10064;BME280;5071;52.360;13.134;2022-10-18T16:53:56;102128.97;;;11.93;100.00
10064;BME280;5071;52.360;13.134;2022-10-18T16:58:59;102120.97;;;11.89;100.00
10064;BME280;5071;52.360;13.134;2022-10-18T17:04:01;102121.78;;;11.80;100.00
10064;BME280;5071;52.360;13.134;2022-10-18T17:09:05;102118.16;;;11.56;100.00
10064;BME280;5071;52.360;13.134;2022-10-18T17:14:07;102127.84;;;11.51;100.00
10064;BME280;5071;52.360;13.134;2022-10-18T17:19:10;102131.34;;;11.39;100.00
10064;BME280;5071;52.360;13.134;2022-10-18T17:24:13;102130.28;;;11.20;100.00
10064;BME280;5071;52.360;13.134;2022-10-18T17:29:15;102135.53;;;11.08;100.00
10064;BME280;5071;52.360;13.134;2022-10-18T17:34:17;102137.16;;;10.92;100.00
10064;BME280;5071;52.360;13.134;2022-10-18T17:39:23;102146.03;;;10.96;100.00
10064;BME280;5071;52.360;13.134;2022-10-18T17:44:25;102136.31;;;10.95;100.00
10064;BME280;5071;52.360;13.134;2022-10-18T17:49:28;102131.69;;;10.75;100.00
10064;BME280;5071;52.360;13.134;2022-10-18T17:54:40;102136.16;;;10.81;100.00
10064;BME280;5071;52.360;13.134;2022-10-18T17:59:48;102142.22;;;10.63;100.00
10064;BME280;5071;52.360;13.134;2022-10-18T18:04:52;102145.53;;;10.43;100.00
10064;BME280;5071;52.360;13.134;2022-10-18T18:09:56;102153.38;;;10.31;100.00
10064;BME280;5071;52.360;13.134;2022-10-18T18:14:59;102147.94;;;10.23;100.00
10064;BME280;5071;52.360;13.134;2022-10-18T18:20:01;102154.94;;;10.17;100.00
10064;BME280;5071;52.360;13.134;2022-10-18T18:25:05;102159.31;;;10.15;100.00
10064;BME280;5071;52.360;13.134;2022-10-18T18:30:08;102168.25;;;10.20;100.00
10064;BME280;5071;52.360;13.134;2022-10-18T18:35:10;102163.59;;;10.02;100.00
10064;BME280;5071;52.360;13.134;2022-10-18T18:40:14;102159.81;;;9.84;100.00
10064;BME280;5071;52.360;13.134;2022-10-18T18:45:16;102167.72;;;9.81;100.00
10064;BME280;5071;52.360;13.134;2022-10-18T18:50:18;102163.94;;;9.62;100.00
10064;BME280;5071;52.360;13.134;2022-10-18T18:55:22;102158.56;;;9.58;100.00
10064;BME280;5071;52.360;13.134;2022-10-18T19:00:24;102172.63;;;9.52;100.00
10064;BME280;5071;52.360;13.134;2022-10-18T19:05:27;102169.94;;;9.49;100.00
10064;BME280;5071;52.360;13.134;2022-10-18T19:10:30;102175.41;;;9.60;100.00
10064;BME280;5071;52.360;13.134;2022-10-18T19:15:33;102184.91;;;10.08;100.00
10064;BME280;5071;52.360;13.134;2022-10-18T19:20:35;102182.22;;;10.06;100.00
10064;BME280;5071;52.360;13.134;2022-10-18T19:25:38;102184.09;;;10.14;100.00
10064;BME280;5071;52.360;13.134;2022-10-18T19:30:40;102189.75;;;10.41;100.00
10064;BME280;5071;52.360;13.134;2022-10-18T19:35:42;102177.16;;;10.26;100.00
10064;BME280;5071;52.360;13.134;2022-10-18T19:40:45;102185.84;;;10.15;100.00
10064;BME280;5071;52.360;13.134;2022-10-18T19:45:54;102176.75;;;9.94;100.00
10064;BME280;5071;52.360;13.134;2022-10-18T19:50:56;102185.28;;;9.71;100.00
10064;BME280;5071;52.360;13.134;2022-10-18T19:56:07;102200.19;;;9.63;100.00
10064;BME280;5071;52.360;13.134;2022-10-18T20:01:10;102215.19;;;9.63;100.00
10064;BME280;5071;52.360;13.134;2022-10-18T20:06:12;102217.84;;;9.63;100.00
10064;BME280;5071;52.360;13.134;2022-10-18T20:11:18;102218.69;;;9.60;100.00
10064;BME280;5071;52.360;13.134;2022-10-18T20:16:22;102222.88;;;9.46;100.00
10064;BME280;5071;52.360;13.134;2022-10-18T20:21:30;102222.63;;;9.30;100.00
10064;BME280;5071;52.360;13.134;2022-10-18T20:26:33;102226.91;;;9.22;100.00
10064;BME280;5071;52.360;13.134;2022-10-18T20:31:35;102230.25;;;9.12;100.00
10064;BME280;5071;52.360;13.134;2022-10-18T20:36:37;102239.81;;;9.02;100.00
10064;BME280;5071;52.360;13.134;2022-10-18T20:41:41;102231.53;;;8.85;100.00
10064;BME280;5071;52.360;13.134;2022-10-18T20:46:43;102243.75;;;8.77;100.00
10064;BME280;5071;52.360;13.134;2022-10-18T20:51:45;102247.16;;;8.70;100.00
10064;BME280;5071;52.360;13.134;2022-10-18T20:56:48;102232.63;;;8.49;100.00
10064;BME280;5071;52.360;13.134;2022-10-18T21:01:50;102242.97;;;8.40;100.00
10064;BME280;5071;52.360;13.134;2022-10-18T21:06:52;102241.22;;;8.39;100.00
10064;BME280;5071;52.360;13.134;2022-10-18T21:11:56;102234.81;;;8.28;100.00
10064;BME280;5071;52.360;13.134;2022-10-18T21:16:58;102230.28;;;8.24;100.00
10064;BME280;5071;52.360;13.134;2022-10-18T21:22:00;102226.59;;;8.15;100.00
10064;BME280;5071;52.360;13.134;2022-10-18T21:27:04;102230.09;;;8.14;100.00
10064;BME280;5071;52.360;13.134;2022-10-18T21:32:05;102218.41;;;8.05;100.00
10064;BME280;5071;52.360;13.134;2022-10-18T21:37:07;102223.44;;;7.92;100.00
10064;BME280;5071;52.360;13.134;2022-10-18T21:42:11;102225.94;;;7.85;100.00
10064;BME280;5071;52.360;13.134;2022-10-18T21:47:13;102215.97;;;7.74;100.00
10064;BME280;5071;52.360;13.134;2022-10-18T21:52:15;102217.66;;;7.71;100.00
10064;BME280;5071;52.360;13.134;2022-10-18T21:57:19;102221.97;;;7.67;100.00
10064;BME280;5071;52.360;13.134;2022-10-18T22:02:21;102223.03;;;7.74;100.00
10064;BME280;5071;52.360;13.134;2022-10-18T22:07:23;102230.03;;;7.72;100.00
10064;BME280;5071;52.360;13.134;2022-10-18T22:12:26;102234.22;;;7.62;100.00
10064;BME280;5071;52.360;13.134;2022-10-18T22:17:28;102222.50;;;7.51;100.00
10064;BME280;5071;52.360;13.134;2022-10-18T22:22:31;102205.50;;;7.39;100.00
10064;BME280;5071;52.360;13.134;2022-10-18T22:27:34;102210.69;;;7.36;100.00
10064;BME280;5071;52.360;13.134;2022-10-18T22:32:37;102210.03;;;7.45;100.00
10064;BME280;5071;52.360;13.134;2022-10-18T22:37:39;102204.75;;;7.45;100.00
10064;BME280;5071;52.360;13.134;2022-10-18T22:42:42;102209.63;;;7.30;100.00
10064;BME280;5071;52.360;13.134;2022-10-18T22:47:44;102208.59;;;7.23;100.00
10064;BME280;5071;52.360;13.134;2022-10-18T22:52:46;102200.25;;;7.43;100.00
10064;BME280;5071;52.360;13.134;2022-10-18T22:57:55;102202.50;;;7.62;100.00
10064;BME280;5071;52.360;13.134;2022-10-18T23:02:57;102193.00;;;7.70;100.00
10064;BME280;5071;52.360;13.134;2022-10-18T23:07:59;102197.78;;;7.87;100.00
10064;BME280;5071;52.360;13.134;2022-10-18T23:13:02;102197.34;;;8.08;100.00
10064;BME280;5071;52.360;13.134;2022-10-18T23:18:05;102202.38;;;8.38;100.00
10064;BME280;5071;52.360;13.134;2022-10-18T23:23:07;102187.63;;;8.49;100.00
10064;BME280;5071;52.360;13.134;2022-10-18T23:28:10;102192.19;;;8.56;100.00
10064;BME280;5071;52.360;13.134;2022-10-18T23:33:12;102190.53;;;8.62;100.00
10064;BME280;5071;52.360;13.134;2022-10-18T23:38:14;102204.84;;;8.73;100.00
10064;BME280;5071;52.360;13.134;2022-10-18T23:43:18;102186.53;;;8.85;100.00
10064;BME280;5071;52.360;13.134;2022-10-18T23:48:20;102197.34;;;8.98;100.00
10064;BME280;5071;52.360;13.134;2022-10-18T23:53:22;102186.00;;;9.05;100.00
10064;BME280;5071;52.360;13.134;2022-10-18T23:58:26;102180.63;;;9.00;100.00
